createdAt,value
2023-02-11T00:03:12.653Z,32.40
2023-02-11T00:06:39.806Z,30.90
2023-02-11T00:10:08.174Z,30.90
2023-02-11T00:13:34.975Z,28.90
2023-02-11T00:17:02.451Z,28.70
2023-02-11T00:20:29.413Z,27.00
2023-02-11T00:23:59.941Z,27.60
2023-02-11T00:27:27.078Z,28.10
2023-02-11T00:30:59.662Z,29.60
2023-02-11T00:34:28.328Z,29.40
2023-02-11T00:37:56.218Z,30.00
2023-02-11T00:41:25.369Z,30.30
2023-02-11T00:44:54.204Z,31.20
2023-02-11T00:48:21.254Z,30.20
2023-02-11T00:51:49.891Z,28.70
2023-02-11T00:55:18.531Z,27.70
2023-02-11T00:58:48.215Z,27.50
2023-02-11T01:02:18.281Z,27.80
2023-02-11T01:05:45.130Z,26.40
2023-02-11T01:09:12.756Z,25.80
2023-02-11T01:12:40.676Z,25.60
2023-02-11T01:16:10.840Z,26.60
2023-02-11T01:19:38.257Z,27.20
2023-02-11T01:23:07.047Z,26.40
2023-02-11T01:26:33.682Z,26.60
2023-02-11T01:30:00.938Z,26.80
2023-02-11T01:33:28.848Z,26.00
2023-02-11T01:37:00.951Z,24.50
2023-02-11T01:40:29.111Z,24.40
2023-02-11T01:43:55.944Z,23.20
2023-02-11T01:47:23.668Z,26.60
2023-02-11T01:50:54.406Z,24.80
2023-02-11T01:54:41.937Z,24.80
2023-02-11T01:58:09.548Z,25.60
2023-02-11T02:01:39.517Z,25.70
2023-02-11T02:05:16.047Z,25.80
2023-02-11T02:08:50.486Z,24.80
2023-02-11T02:12:18.030Z,26.60
2023-02-11T02:15:54.847Z,26.40
2023-02-11T02:19:47.628Z,25.00
2023-02-11T02:23:50.018Z,25.50
2023-02-11T02:27:31.261Z,25.40
2023-02-11T02:31:21.623Z,23.40
2023-02-11T02:34:55.895Z,24.30
2023-02-11T02:38:29.596Z,25.80
2023-02-11T02:42:03.544Z,25.60
2023-02-11T02:45:30.645Z,26.80
2023-02-11T02:48:59.787Z,25.80
2023-02-11T02:52:37.152Z,25.30
2023-02-11T02:56:11.725Z,26.00
2023-02-11T02:59:49.836Z,25.50
2023-02-11T03:03:32.187Z,25.40
2023-02-11T03:07:07.477Z,25.50
2023-02-11T03:10:39.194Z,26.60
2023-02-11T03:14:10.214Z,26.50
2023-02-11T03:17:41.017Z,28.40
2023-02-11T03:21:14.908Z,28.10
2023-02-11T03:24:43.485Z,29.70
2023-02-11T03:28:17.458Z,29.00
2023-02-11T03:31:56.040Z,30.00
2023-02-11T03:35:26.270Z,28.40
2023-02-11T03:38:58.890Z,29.80
2023-02-11T03:42:34.103Z,27.90
2023-02-11T03:46:03.847Z,28.50
2023-02-11T03:49:34.282Z,28.70
2023-02-11T03:53:03.305Z,29.20
2023-02-11T03:56:35.011Z,30.40
2023-02-11T04:00:02.434Z,30.70
2023-02-11T04:03:38.607Z,33.80
2023-02-11T04:07:05.492Z,32.40
2023-02-11T04:10:33.177Z,32.10
2023-02-11T04:13:59.946Z,31.50
2023-02-11T04:17:27.092Z,30.70
2023-02-11T04:20:54.854Z,31.10
2023-02-11T04:24:21.925Z,31.90
2023-02-11T04:27:48.869Z,33.00
2023-02-11T04:31:31.613Z,31.80
2023-02-11T04:35:05.415Z,33.90
2023-02-11T04:38:32.621Z,35.10
2023-02-11T04:41:59.565Z,35.10
2023-02-11T04:45:26.405Z,32.90
2023-02-11T04:48:53.270Z,34.40
2023-02-11T04:52:20.190Z,33.60
2023-02-11T04:55:50.004Z,33.10
2023-02-11T04:59:17.160Z,32.80
2023-02-11T05:02:43.775Z,33.30
2023-02-11T05:06:11.700Z,33.20
2023-02-11T05:09:38.567Z,31.90
2023-02-11T05:13:07.972Z,33.10
2023-02-11T05:16:35.248Z,35.00
2023-02-11T05:20:02.232Z,35.60
2023-02-11T05:23:29.833Z,36.20
2023-02-11T05:26:56.581Z,37.30
2023-02-11T05:30:24.274Z,38.20
2023-02-11T05:33:51.224Z,35.50
2023-02-11T05:37:18.344Z,37.00
2023-02-11T05:40:45.880Z,36.70
2023-02-11T05:44:12.804Z,35.10
2023-02-11T05:47:39.631Z,36.90
2023-02-11T05:51:06.881Z,35.40
2023-02-11T05:54:36.310Z,34.60
2023-02-11T05:58:07.172Z,35.40
2023-02-11T06:01:34.434Z,36.70
2023-02-11T06:05:01.145Z,36.50
2023-02-11T06:08:30.647Z,36.20
2023-02-11T06:11:58.193Z,36.30
2023-02-11T06:15:25.391Z,38.10
2023-02-11T06:18:52.056Z,36.20
2023-02-11T06:22:18.836Z,38.20
2023-02-11T06:25:45.651Z,36.90
2023-02-11T06:29:13.230Z,38.40
2023-02-11T06:32:45.419Z,40.00
2023-02-11T06:36:18.664Z,39.90
2023-02-11T06:39:47.178Z,41.70
2023-02-11T06:43:16.157Z,37.80
2023-02-11T06:46:43.871Z,36.40
2023-02-11T06:50:13.563Z,38.50
2023-02-11T06:53:45.155Z,35.30
2023-02-11T06:57:11.528Z,37.70
2023-02-11T07:00:38.106Z,35.90
2023-02-11T07:04:04.767Z,36.80
2023-02-11T07:07:34.255Z,37.40
2023-02-11T07:11:01.231Z,36.80
2023-02-11T07:14:27.830Z,36.60
2023-02-11T07:17:55.462Z,36.70
2023-02-11T07:21:24.534Z,36.90
2023-02-11T07:24:51.736Z,35.60
2023-02-11T07:28:18.716Z,32.80
2023-02-11T07:31:45.761Z,33.70
2023-02-11T07:35:12.903Z,30.40
2023-02-11T07:38:43.182Z,31.80
2023-02-11T07:42:10.346Z,33.80
2023-02-11T07:45:41.644Z,32.80
2023-02-11T07:49:08.396Z,29.60
2023-02-11T07:52:35.251Z,29.00
2023-02-11T07:56:03.467Z,27.90
2023-02-11T07:59:30.216Z,27.60
2023-02-11T08:02:58.878Z,27.80
2023-02-11T08:06:30.185Z,27.50
2023-02-11T08:09:57.110Z,28.10
2023-02-11T08:13:24.578Z,27.70
2023-02-11T08:16:51.481Z,26.20
2023-02-11T08:20:18.506Z,28.40
2023-02-11T08:23:46.926Z,28.50
2023-02-11T08:27:13.755Z,29.90
2023-02-11T08:30:41.550Z,30.70
2023-02-11T08:34:08.612Z,32.80
2023-02-11T08:37:36.224Z,35.20
2023-02-11T08:41:04.502Z,33.70
2023-02-11T08:44:30.980Z,34.80
2023-02-11T08:47:57.848Z,34.10
2023-02-11T08:51:28.864Z,33.70
2023-02-11T08:54:55.786Z,34.60
2023-02-11T08:58:24.386Z,36.00
2023-02-11T09:01:53.702Z,35.60
2023-02-11T09:05:31.509Z,34.20
2023-02-11T09:08:59.851Z,34.20
2023-02-11T09:12:28.363Z,34.20
2023-02-11T09:15:55.403Z,34.70
2023-02-11T09:19:24.948Z,33.50
2023-02-11T09:22:51.557Z,34.30
2023-02-11T09:26:20.203Z,35.00
2023-02-11T09:29:47.042Z,35.30
2023-02-11T09:33:13.901Z,35.40
2023-02-11T09:36:42.807Z,35.10
2023-02-11T09:40:14.240Z,35.70
2023-02-11T09:43:48.319Z,34.30
2023-02-11T09:47:25.673Z,33.40
2023-02-11T09:50:55.702Z,34.90
2023-02-11T09:54:30.171Z,35.20
2023-02-11T09:57:59.227Z,33.70
2023-02-11T10:01:36.624Z,33.00
2023-02-11T10:05:33.280Z,33.30
2023-02-11T10:09:10.786Z,34.80
2023-02-11T10:12:51.649Z,33.70
2023-02-11T10:16:39.248Z,32.60
2023-02-11T10:20:18.951Z,31.70
2023-02-11T10:23:51.838Z,32.00
2023-02-11T10:27:25.545Z,31.60
2023-02-11T10:31:00.956Z,32.70
2023-02-11T10:34:28.017Z,31.60
2023-02-11T10:37:55.135Z,30.50
2023-02-11T10:41:28.162Z,32.60
2023-02-11T10:45:01.966Z,31.30
2023-02-11T10:48:46.785Z,30.60
2023-02-11T10:52:26.275Z,29.40
2023-02-11T10:55:56.268Z,29.50
2023-02-11T10:59:31.859Z,28.40
2023-02-11T11:03:01.895Z,27.80
2023-02-11T11:06:35.072Z,27.20
2023-02-11T11:10:06.004Z,26.80
2023-02-11T11:13:35.988Z,27.10
2023-02-11T11:17:03.495Z,25.80
2023-02-11T11:20:38.308Z,26.70
2023-02-11T11:24:07.365Z,27.50
2023-02-11T11:27:34.452Z,27.70
2023-02-11T11:31:03.067Z,26.20
2023-02-11T11:34:33.864Z,26.70
2023-02-11T11:38:03.741Z,25.60
2023-02-11T11:41:33.071Z,23.10
2023-02-11T11:45:02.353Z,21.50
2023-02-11T11:48:36.179Z,20.90
2023-02-11T11:52:13.254Z,20.80
2023-02-11T11:55:45.102Z,20.00
2023-02-11T11:59:17.280Z,19.40
2023-02-11T12:03:15.026Z,18.60
2023-02-11T12:06:55.408Z,17.40
2023-02-11T12:10:40.822Z,17.10
2023-02-11T12:14:18.709Z,16.30
2023-02-11T12:18:15.564Z,14.80
2023-02-11T12:21:51.943Z,14.30
2023-02-11T12:25:37.028Z,14.60
2023-02-11T12:29:17.314Z,13.40
2023-02-11T12:32:52.951Z,14.00
2023-02-11T12:36:29.468Z,13.60
2023-02-11T12:40:05.332Z,12.90
2023-02-11T12:43:37.819Z,11.90
2023-02-11T12:47:15.599Z,13.90
2023-02-11T12:50:51.663Z,13.40
2023-02-11T12:54:30.071Z,12.90
2023-02-11T12:58:00.241Z,12.90
2023-02-11T13:01:32.581Z,13.80
2023-02-11T13:05:11.153Z,12.50
2023-02-11T13:08:44.051Z,14.00
2023-02-11T13:12:28.059Z,11.30
2023-02-11T13:16:01.437Z,12.50
2023-02-11T13:23:07.354Z,12.70
2023-02-11T13:26:41.159Z,13.10
2023-02-11T13:30:28.730Z,11.30
2023-02-11T13:33:55.745Z,11.80
2023-02-11T13:37:26.689Z,12.10
2023-02-11T13:41:05.312Z,13.10
2023-02-11T13:44:35.653Z,11.30
2023-02-11T13:48:06.326Z,11.60
2023-02-11T13:51:42.028Z,11.70
2023-02-11T13:55:21.841Z,12.70
2023-02-11T13:58:52.730Z,13.60
2023-02-11T14:02:47.255Z,13.00
2023-02-11T14:06:38.764Z,11.20
2023-02-11T14:10:06.939Z,11.90
2023-02-11T14:13:34.767Z,11.90
2023-02-11T14:17:32.095Z,13.70
2023-02-11T14:21:16.009Z,14.20
2023-02-11T14:28:26.026Z,13.60
2023-02-11T14:32:05.750Z,12.60
2023-02-11T14:35:43.391Z,13.00
2023-02-11T14:39:21.479Z,12.40
2023-02-11T14:42:49.115Z,12.40
2023-02-11T14:46:19.915Z,12.50
2023-02-11T14:49:48.309Z,14.30
2023-02-11T14:53:20.781Z,14.90
2023-02-11T14:56:48.529Z,12.70
2023-02-11T15:00:23.889Z,12.60
2023-02-11T15:03:56.161Z,14.50
2023-02-11T15:07:23.756Z,11.30
2023-02-11T15:10:53.647Z,10.80
2023-02-11T15:14:25.928Z,11.00
2023-02-11T15:17:53.760Z,10.30
2023-02-11T15:21:27.264Z,11.60
2023-02-11T15:25:04.216Z,13.80
2023-02-11T15:28:32.767Z,13.60
2023-02-11T15:32:15.021Z,13.80
2023-02-11T15:35:43.113Z,11.30
2023-02-11T15:39:34.471Z,10.70
2023-02-11T15:43:04.137Z,11.20
2023-02-11T15:46:38.617Z,11.60
2023-02-11T15:50:06.645Z,15.50
2023-02-11T15:53:42.509Z,24.20
2023-02-11T15:57:13.458Z,22.10
2023-02-11T16:00:50.660Z,13.70
2023-02-11T16:04:22.119Z,11.90
2023-02-11T16:07:51.186Z,13.80
2023-02-11T16:11:31.954Z,12.40
2023-02-11T16:15:04.060Z,11.10
2023-02-11T16:18:40.067Z,10.80
2023-02-11T16:22:13.138Z,10.80
2023-02-11T16:25:43.834Z,11.20
2023-02-11T16:29:15.941Z,12.30
2023-02-11T16:32:43.407Z,11.20
2023-02-11T16:36:17.667Z,12.80
2023-02-11T16:39:44.982Z,13.20
2023-02-11T16:43:13.957Z,13.60
2023-02-11T16:46:42.206Z,12.10
2023-02-11T16:50:12.756Z,13.50
2023-02-11T16:53:39.647Z,11.70
2023-02-11T16:57:17.401Z,12.90
2023-02-11T17:00:45.095Z,11.90
2023-02-11T17:04:22.612Z,12.90
2023-02-11T17:07:58.135Z,11.60
2023-02-11T17:11:29.234Z,14.40
2023-02-11T17:14:59.852Z,13.60
2023-02-11T17:18:28.288Z,10.50
2023-02-11T17:21:57.131Z,17.70
2023-02-11T17:25:26.285Z,16.00
2023-02-11T17:29:10.374Z,15.80
2023-02-11T17:32:41.610Z,18.30
2023-02-11T17:36:13.523Z,17.70
2023-02-11T17:39:41.811Z,13.70
2023-02-11T17:43:09.374Z,12.30
2023-02-11T17:46:37.849Z,12.10
2023-02-11T17:50:05.647Z,13.60
2023-02-11T17:53:35.823Z,13.60
2023-02-11T17:57:05.957Z,13.70
2023-02-11T18:00:34.289Z,13.80
2023-02-11T18:04:01.248Z,15.60
2023-02-11T18:07:28.141Z,14.70
2023-02-11T18:10:55.204Z,15.70
2023-02-11T18:14:22.485Z,16.90
2023-02-11T18:17:50.700Z,15.40
2023-02-11T18:21:20.003Z,16.30
2023-02-11T18:24:46.841Z,16.90
2023-02-11T18:28:13.697Z,14.70
2023-02-11T18:31:40.742Z,12.50
2023-02-11T18:35:14.787Z,13.30
2023-02-11T18:38:42.117Z,12.30
2023-02-11T18:42:08.949Z,11.80
2023-02-11T18:45:37.483Z,12.10
2023-02-11T18:49:04.373Z,13.30
2023-02-11T18:52:32.056Z,13.00
2023-02-11T18:55:58.966Z,13.20
2023-02-11T18:59:29.070Z,16.90
2023-02-11T19:02:59.345Z,15.00
2023-02-11T19:06:28.243Z,13.10
2023-02-11T19:09:56.205Z,12.00
2023-02-11T19:13:24.064Z,12.10
2023-02-11T19:16:53.265Z,10.70
2023-02-11T19:20:24.970Z,12.30
2023-02-11T19:23:51.777Z,11.70
2023-02-11T19:27:19.002Z,11.70
2023-02-11T19:30:46.738Z,12.70
2023-02-11T19:34:26.237Z,11.80
2023-02-11T19:38:02.634Z,11.20
2023-02-11T19:41:34.351Z,10.30
2023-02-11T19:45:03.499Z,9.70
2023-02-11T19:48:30.836Z,9.80
2023-02-11T19:52:00.784Z,10.20
2023-02-11T19:55:31.168Z,11.10
2023-02-11T19:59:09.444Z,10.20
2023-02-11T20:02:39.310Z,10.90
2023-02-11T20:06:14.700Z,10.80
2023-02-11T20:09:42.775Z,11.80
2023-02-11T20:13:10.063Z,12.50
2023-02-11T20:16:48.006Z,13.30
2023-02-11T20:20:21.236Z,12.40
2023-02-11T20:23:50.647Z,11.60
2023-02-11T20:27:19.745Z,9.50
2023-02-11T20:30:57.230Z,10.00
2023-02-11T20:34:25.851Z,9.70
2023-02-11T20:37:53.437Z,10.00
2023-02-11T20:41:22.463Z,11.00
2023-02-11T20:44:49.844Z,11.20
2023-02-11T20:48:17.335Z,11.70
2023-02-11T20:51:46.804Z,10.40
2023-02-11T20:55:14.540Z,11.20
2023-02-11T20:58:42.183Z,15.90
2023-02-11T21:02:12.701Z,18.80
2023-02-11T21:05:40.153Z,16.00
2023-02-11T21:09:14.800Z,14.90
2023-02-11T21:12:41.733Z,15.10
2023-02-11T21:16:12.168Z,15.20
2023-02-11T21:19:39.572Z,11.60
2023-02-11T21:23:06.644Z,12.60
2023-02-11T21:26:36.923Z,8.40
2023-02-11T21:30:12.759Z,7.80
2023-02-11T21:33:41.626Z,8.60
2023-02-11T21:37:15.010Z,9.10
2023-02-11T21:41:09.722Z,6.80
2023-02-11T21:44:39.875Z,6.80
2023-02-11T21:48:08.861Z,5.60
2023-02-11T21:51:41.588Z,6.80
2023-02-11T21:55:12.638Z,6.80
2023-02-11T21:58:42.951Z,9.20
2023-02-11T22:02:16.393Z,10.00
2023-02-11T22:05:54.816Z,7.00
2023-02-11T22:09:24.546Z,7.50
2023-02-11T22:12:51.527Z,19.70
2023-02-11T22:16:30.850Z,52.20
2023-02-11T22:20:00.001Z,13.10
2023-02-11T22:23:28.926Z,11.90
2023-02-11T22:26:59.799Z,13.10
2023-02-11T22:30:28.066Z,11.30
2023-02-11T22:33:59.225Z,9.90
2023-02-11T22:37:26.586Z,9.50
2023-02-11T22:40:54.588Z,5.60
2023-02-11T22:44:26.922Z,5.30
2023-02-11T22:47:57.127Z,5.20
2023-02-11T22:51:27.875Z,5.10
2023-02-11T22:54:56.631Z,5.10
2023-02-11T22:58:28.721Z,5.30
2023-02-11T23:01:57.336Z,4.70
2023-02-11T23:05:26.916Z,4.10
2023-02-11T23:08:53.565Z,5.10
2023-02-11T23:12:31.717Z,4.50
2023-02-11T23:16:07.144Z,4.30
2023-02-11T23:19:36.124Z,4.00
2023-02-11T23:23:06.455Z,4.70
2023-02-11T23:26:35.691Z,4.80
2023-02-11T23:30:02.572Z,4.40
2023-02-11T23:33:32.176Z,3.90
2023-02-11T23:37:01.085Z,4.50
2023-02-11T23:40:29.776Z,8.50
2023-02-11T23:44:00.518Z,8.60
2023-02-11T23:47:27.797Z,8.80
2023-02-11T23:50:56.219Z,8.50
2023-02-11T23:54:25.235Z,7.20
2023-02-11T23:58:06.345Z,6.80
